Latest Weather Observations for Gunnedah Airport

IDN60801

Issued at 4:32 pm EDT Sunday 26 February 2017 (issued every 30 minutes, with the page automatically refreshed every 10 minutes)

About weather observations | Map of weather stations | Latest weather observations for NSW | Other Formats
Station Details ID: 055202 Name: GUNNEDAH AIRPORT AWS Lat: -30.95 Lon: 150.25 Height: 262.57 m
Data from the previous 72 hours. | See also: Recent months at Gunnedah Airport
Date/Time
EDT
Temp
°C
App
Temp
°C
Dew
Point
°C
Rel
Hum
%
Delta-T
°C
Wind Press
QNH
hPa
Press
MSL
hPa
Rain since
9am
mm
Dir  Spd
km/h
Gust
km/h
Spd
kts
Gust
kts
26/04:30pm 30.9 25.4 12.3 32 11.1 SSE 33 46 18 25 1015.3 1013.8 0.0
26/04:00pm 31.2 26.3 12.5 31 11.2 SSE 30 43 16 23 1015.4 1013.9 0.0
26/03:30pm 30.7 25.7 12.1 32 11.0 SSE 30 44 16 24 1015.7 1014.2 0.0
26/03:00pm 31.4 26.9 12.7 32 11.2 SSE 28 41 15 22 1016.2 1014.7 0.0
26/02:31pm 31.2 26.7 12.5 31 11.2 SE 28 46 15 25 1016.4 1014.9 0.0
26/02:30pm 30.7 25.7 12.1 32 11.0 SE 30 43 16 23 1016.5 1015.0 0.0
26/02:00pm 28.4 24.1 11.9 36 9.6 SSE 26 39 14 21 1017.0 1015.5 0.0
26/01:30pm 29.6 25.8 11.2 32 10.7 SSE 22 32 12 17 1017.2 1015.8 0.0
26/01:00pm 29.9 25.8 11.4 32 10.8 SE 24 33 13 18 1017.7 1016.3 0.0
26/12:30pm 29.4 25.6 11.0 32 10.7 ESE 22 33 12 18 1017.9 1016.5 0.0
26/12:00pm 28.0 25.1 12.8 39 9.0 SE 20 30 11 16 1018.3 1016.8 0.0
26/11:30am 28.9 25.7 13.2 38 9.4 SE 22 32 12 17 1018.6 1017.1 0.0
26/11:00am 27.7 24.0 14.0 43 8.2 SE 26 35 14 19 1018.9 1017.4 0.0
26/10:30am 26.6 23.6 13.7 45 7.7 SE 22 35 12 19 1019.2 1017.7 0.0
26/10:00am 25.5 22.2 14.0 49 6.9 SE 24 32 13 17 1019.1 1017.6 0.0
26/09:30am 25.1 22.2 15.1 53 6.1 SE 24 32 13 17 1019.1 1017.6 0.0
26/09:00am 23.6 20.1 15.4 60 5.0 SE 28 37 15 20 1018.8 1017.3 0.0
26/08:30am 22.0 19.2 15.4 66 4.0 SSE 24 37 13 20 1018.6 1017.1 0.0
26/08:00am 20.6 18.0 14.9 70 3.4 SE 22 33 12 18 1018.1 1016.7 0.0
26/07:30am 19.2 16.7 15.1 77 2.4 SE 22 30 12 16 1017.9 1016.5 0.0
26/07:00am 18.4 16.8 14.9 80 2.1 SE 17 22 9 12 1017.2 1015.8 0.0
26/06:30am 18.7 16.5 15.0 79 2.2 SE 20 30 11 16 1016.7 1015.2 0.0
26/06:00am 19.2 16.7 15.1 77 2.4 SSE 22 30 12 16 1016.3 1014.8 0.0
26/05:30am 18.9 16.8 15.2 79 2.2 SSE 20 28 11 15 1015.8 1014.3 0.0
26/05:00am 18.7 16.6 15.2 80 2.1 SE 20 28 11 15 1015.5 1014.0 0.0
26/04:30am 18.9 16.8 15.2 79 2.2 SE 20 28 11 15 1015.5 1014.0 0.0
26/04:00am 19.3 16.5 15.4 78 2.3 SE 24 33 13 18 1015.5 1014.0 0.0
26/03:30am 19.5 17.1 15.4 77 2.4 SE 22 32 12 17 1015.8 1014.3 0.0
26/03:00am 19.8 17.0 15.4 76 2.6 SE 24 30 13 16 1015.7 1014.2 0.0
26/02:30am 20.0 18.0 15.4 75 2.8 SSE 20 30 11 16 1016.1 1014.6 0.0
26/02:00am 20.0 17.6 15.4 75 2.7 SE 22 32 12 17 1016.3 1014.8 0.0
26/01:30am 20.3 18.3 15.5 74 2.9 SE 20 30 11 16 1016.3 1014.8 0.0
26/01:00am 20.6 17.4 15.4 72 3.1 SE 26 35 14 19 1016.5 1015.0 0.0
26/12:30am 21.2 17.3 15.5 70 3.4 SE 30 41 16 22 1016.4 1014.9 0.0
26/12:00am 21.7 18.2 15.5 68 3.7 SSE 28 37 15 20 1016.7 1015.2 0.0
 
Date/Time
EDT
Temp
°C
App
Temp
°C
Dew
Point
°C
Rel
Hum
%
Delta-T
°C
Wind Press
QNH
hPa
Press
MSL
hPa
Rain since
9am
mm
Dir  Spd
km/h
Gust
km/h
Spd
kts
Gust
kts
25/11:30pm 21.9 19.2 15.7 68 3.8 SSE 24 37 13 20 1016.5 1015.0 0.0
25/11:00pm 22.4 19.7 15.7 66 4.1 SE 24 33 13 18 1016.5 1015.0 0.0
25/10:30pm 22.4 19.3 15.7 66 4.1 SSE 26 35 14 19 1016.1 1014.6 0.0
25/10:00pm 22.9 19.1 15.7 64 4.4 SE 30 41 16 22 1015.5 1014.0 0.0
25/09:30pm 23.5 19.3 15.8 62 4.7 SSE 32 46 17 25 1015.1 1013.6 0.0
25/09:00pm 24.2 19.8 15.7 59 5.2 SSE 33 54 18 29 1015.0 1013.5 0.0
25/08:57pm 24.2 20.0 15.7 59 5.2 SSE 32 54 17 29 1015.1 1013.6 0.0
25/08:30pm 24.6 20.3 15.5 57 5.6 SSE 32 46 17 25 1014.9 1013.4 0.0
25/08:00pm 25.3 20.5 15.6 55 5.9 SSE 35 48 19 26 1014.6 1013.1 0.0
25/07:30pm 26.0 21.1 15.4 52 6.5 SSE 35 56 19 30 1013.5 1012.0 0.0
25/07:25pm 26.2 20.9 15.3 51 6.7 SSE 37 56 20 30 1013.4 1011.9 0.0
25/07:00pm 27.5 23.0 14.8 45 7.8 SSE 32 44 17 24 1012.9 1011.4 0.0
25/06:30pm 28.9 23.1 13.9 39 9.1 SSE 37 52 20 28 1012.9 1011.4 0.0
25/06:26pm 29.2 24.1 13.8 39 9.3 SSE 33 52 18 28 1012.9 1011.4 0.0
25/06:00pm 30.1 24.8 12.5 34 10.5 SSE 32 44 17 24 1012.7 1011.2 0.0
25/05:55pm 30.3 24.9 12.2 33 10.7 SSE 32 44 17 24 1012.6 1011.1 0.0
25/05:30pm 31.9 28.7 10.0 26 12.6 SE 17 24 9 13 1012.0 1010.5 0.0
25/05:00pm 32.2 29.9 10.3 26 12.7 ESE 13 22 7 12 1012.1 1010.6 0.0
25/04:30pm 32.6 30.3 10.6 26 12.8 ESE 13 20 7 11 1012.3 1010.8 0.0
25/04:00pm 33.1 31.3 11.0 26 13.0 SE 11 17 6 9 1012.9 1011.4 0.0
25/03:30pm 33.9 32.6 11.1 25 13.5 E 9 24 5 13 1013.2 1011.7 0.0
25/03:00pm 33.2 31.7 10.5 25 13.3 SW 9 17 5 9 1013.8 1012.4 0.0
25/02:30pm 33.4 31.3 11.3 26 13.1 ESE 13 22 7 12 1014.5 1013.0 0.0
25/02:00pm 32.6 31.7 11.2 27 12.6 SSW 7 17 4 9 1015.0 1013.5 0.0
25/01:30pm 32.3 30.3 11.5 28 12.3 SE 13 24 7 13 1015.6 1014.1 0.0
25/01:00pm 31.7 29.7 11.5 29 11.9 ESE 13 24 7 13 1015.8 1014.3 0.0
25/12:30pm 30.7 28.1 10.6 29 11.6 SE 15 24 8 13 1016.2 1014.7 0.0
25/12:00pm 30.5 28.4 11.0 30 11.3 ESE 13 20 7 11 1016.5 1015.0 0.0
25/11:30am 29.6 27.6 11.6 33 10.5 SE 13 30 7 16 1017.2 1015.8 0.0
25/11:00am 28.9 26.9 12.8 37 9.6 SE 15 24 8 13 1017.7 1016.3 0.0
25/10:30am 28.5 26.3 13.2 39 9.1 ESE 17 26 9 14 1017.9 1016.5 0.0
25/10:00am 27.0 24.3 13.4 43 8.1 ESE 20 26 11 14 1018.0 1016.6 0.0
25/09:30am 25.9 23.8 14.7 50 6.8 SE 19 24 10 13 1018.1 1016.7 0.0
25/09:00am 24.8 22.8 15.4 56 5.7 SE 20 28 11 15 1017.9 1016.5 0.0
25/08:30am 22.8 20.8 15.4 63 4.5 SE 20 26 11 14 1017.9 1016.5 0.0
25/08:00am 21.7 20.3 15.5 68 3.7 SE 17 22 9 12 1017.6 1016.2 0.0
25/07:30am 20.9 19.1 15.4 71 3.3 SE 19 24 10 13 1017.4 1016.0 0.0
25/07:00am 20.1 18.3 15.5 75 2.8 SSE 19 24 10 13 1017.0 1015.5 0.0
25/06:30am 20.2 18.4 15.4 74 2.9 SE 19 24 10 13 1016.7 1015.2 0.0
25/06:00am 20.4 18.4 15.4 73 3.0 SSE 20 32 11 17 1016.2 1014.7 0.0
25/05:30am 20.6 17.7 15.2 71 3.2 SSE 24 33 13 18 1015.7 1014.2 0.0
25/05:00am 20.9 17.7 15.2 70 3.4 SSE 26 35 14 19 1015.5 1014.0 0.0
25/04:30am 21.2 18.8 15.3 69 3.5 SSE 22 32 12 17 1015.3 1013.8 0.0
25/04:00am 21.7 19.3 15.3 67 3.8 SSE 22 30 12 16 1015.1 1013.6 0.0
25/03:30am 21.8 19.3 15.2 66 4.0 SSE 22 33 12 18 1015.1 1013.6 0.0
25/03:00am 22.1 19.4 14.7 63 4.4 SSE 22 32 12 17 1015.3 1013.8 0.0
25/02:30am 23.0 19.9 14.6 59 5.0 SSE 24 32 13 17 1015.2 1013.7 0.0
25/02:00am 23.3 20.2 13.5 54 5.8 SE 22 28 12 15 1015.3 1013.8 0.0
25/01:30am 24.6 21.3 12.9 48 6.8 SE 22 28 12 15 1015.3 1013.8 0.0
25/01:00am 25.3 23.5 14.4 50 6.6 SE 17 22 9 12 1015.2 1013.7 0.0
25/12:30am 25.1 23.7 13.3 48 7.0 ESE 13 17 7 9 1015.3 1013.8 0.0
25/12:00am 26.5 24.9 12.9 43 8.0 E 13 17 7 9 1015.3 1013.8 0.0
 
Date/Time
EDT
Temp
°C
App
Temp
°C
Dew
Point
°C
Rel
Hum
%
Delta-T
°C
Wind Press
QNH
hPa
Press
MSL
hPa
Rain since
9am
mm
Dir  Spd
km/h
Gust
km/h
Spd
kts
Gust
kts
24/11:30pm 26.6 25.3 13.7 45 7.7 E 13 17 7 9 1015.5 1014.0 0.0
24/11:00pm 25.8 24.9 13.6 47 7.3 SE 11 15 6 8 1015.8 1014.3 0.0
24/10:30pm 26.9 24.5 12.5 40 8.5 SE 17 24 9 13 1016.2 1014.7 0.0
24/10:00pm 28.0 25.1 12.8 39 9.0 SSE 20 28 11 15 1016.0 1014.5 0.0
24/09:30pm 28.3 24.3 11.8 36 9.6 SE 24 35 13 19 1015.9 1014.4 0.0
24/09:00pm 28.3 23.3 10.9 34 10.0 SSE 28 35 15 19 1016.7 1015.2 0.0
24/08:30pm 29.5 25.5 10.6 31 10.9 SSW 22 35 12 19 1016.6 1015.1 0.0
24/08:19pm 29.7 24.5 10.3 30 11.1 SW 28 35 15 19 1016.4 1014.9 0.0
24/08:00pm 29.9 27.5 9.9 29 11.4 SE 13 17 7 9 1015.9 1014.4 0.0
24/07:30pm 29.5 26.5 10.6 31 10.9 SW 17 32 9 17 1015.4 1013.9 0.0
24/07:00pm 31.9 29.6 10.6 27 12.4 W 13 19 7 10 1013.7 1012.3 0.0
24/06:30pm 32.3 30.7 11.5 28 12.3 W 11 11 6 6 1013.6 1012.1 0.0
24/06:00pm 34.2 33.6 8.8 21 14.5 S 2 9 1 5 1013.7 1012.3 0.0
24/05:30pm 33.3 33.5 10.6 25 13.3 CALM 0 0 0 0 1013.6 1012.1 0.0
24/05:00pm 32.8 29.9 9.6 24 13.3 ESE 15 20 8 11 1013.9 1012.5 0.0
24/04:30pm 34.6 29.3 9.8 22 14.4 SE 28 37 15 20 1014.1 1012.7 0.0
24/04:00pm 32.3 27.1 10.4 26 12.7 SSE 28 54 15 29 1014.7 1013.2 0.0
24/03:55pm 33.9 29.9 9.2 22 14.2 SE 20 54 11 29 1014.5 1013.0 0.0
24/03:30pm 36.9 34.3 9.5 19 16.0 N 13 20 7 11 1014.0 1012.6 0.0
24/03:00pm 37.1 35.8 11.1 21 15.6 NW 9 19 5 10 1014.7 1013.2 0.0
24/02:30pm 36.4 34.9 10.6 21 15.3 ESE 9 17 5 9 1015.3 1013.8 0.0
24/02:00pm 35.5 34.0 10.5 22 14.7 NNE 9 17 5 9 1016.1 1014.6 0.0
24/01:30pm 35.1 33.9 11.5 24 14.1 WNW 9 15 5 8 1016.7 1015.2 0.0
24/01:00pm 34.4 31.9 10.9 24 13.9 W 15 22 8 12 1017.3 1015.9 0.0
24/12:30pm 34.5 33.3 11.6 25 13.7 WSW 9 19 5 10 1017.8 1016.4 0.0
24/12:00pm 32.7 30.4 11.8 28 12.4 NW 15 24 8 13 1018.4 1016.9 0.0
24/11:30am 32.3 30.3 11.5 28 12.3 W 13 20 7 11 1018.8 1017.3 0.0
24/11:00am 31.8 29.1 11.6 29 11.9 W 17 22 9 12 1019.1 1017.6 0.0
24/10:30am 31.8 29.6 12.1 30 11.7 WSW 15 20 8 11 1019.4 1017.9 0.0
24/10:00am 30.0 26.9 11.5 32 10.8 W 19 26 10 14 1019.4 1017.9 0.0
24/09:30am 29.3 27.4 11.8 34 10.3 WNW 13 22 7 12 1019.3 1017.8 0.0
24/09:00am 27.0 26.2 14.1 45 7.8 N 11 15 6 8 1019.3 1017.8 0.0
24/08:30am 23.9 23.5 14.0 54 5.9 N 9 11 5 6 1019.1 1017.6 0.0
24/08:00am 22.5 23.0 14.1 59 5.0 NNE 4 9 2 5 1018.9 1017.4 0.0
24/07:30am 20.5 20.6 14.4 68 3.6 SE 7 9 4 5 1018.5 1017.0 0.0
24/07:00am 18.6 17.9 13.2 71 3.1 SSE 9 11 5 6 1017.9 1016.5 0.0
24/06:30am 18.7 17.6 13.1 70 3.2 SSE 11 11 6 6 1017.5 1016.1 0.0
24/06:00am 19.6 19.5 14.0 70 3.3 S 7 9 4 5 1017.2 1015.8 0.0
24/05:30am 20.6 20.4 13.6 64 4.1 SSE 7 9 4 5 1017.1 1015.7 0.0
24/05:00am 19.9 19.0 13.6 67 3.6 SSE 11 13 6 7 1016.9 1015.4 0.0
24/04:30am 20.1 19.3 14.0 68 3.6 SSE 11 11 6 6 1016.7 1015.2 0.0
24/04:00am 19.8 19.0 14.0 69 3.4 SSE 11 13 6 7 1016.7 1015.2 0.0
24/03:30am 20.1 18.9 14.0 68 3.6 SSE 13 15 7 8 1016.7 1015.2 0.0
24/03:00am 20.7 19.5 13.9 65 4.0 SE 13 15 7 8 1016.8 1015.3 0.0
24/02:30am 21.2 21.3 13.9 63 4.3 SE 6 9 3 5 1017.1 1015.7 0.0
24/02:00am 22.3 22.0 13.4 57 5.2 SSE 7 9 4 5 1017.3 1015.9 0.0
24/01:30am 23.2 22.5 13.1 53 5.9 SSE 9 13 5 7 1017.5 1016.1 0.0
24/01:00am 25.1 24.9 13.0 47 7.1 ESE 6 9 3 5 1017.4 1016.0 0.0
24/12:30am 25.3 25.2 13.2 47 7.1 SE 6 9 3 5 1017.4 1016.0 0.0
24/12:00am 25.1 25.6 12.7 46 7.2 SE 2 7 1 4 1017.4 1016.0 0.0
 
Date/Time
EDT
Temp
°C
App
Temp
°C
Dew
Point
°C
Rel
Hum
%
Delta-T
°C
Wind Press
QNH
hPa
Press
MSL
hPa
Rain since
9am
mm
Dir  Spd
km/h
Gust
km/h
Spd
kts
Gust
kts
23/11:30pm 26.1 24.7 12.2 42 8.1 ESE 11 15 6 8 1017.3 1015.9 0.0
23/11:00pm 26.1 25.4 11.5 40 8.4 SW 6 11 3 6 1017.4 1016.0 0.0
23/10:30pm 26.9 25.0 10.6 36 9.3 E 11 15 6 8 1017.2 1015.8 0.0
23/10:00pm 24.8 23.6 12.7 47 7.1 E 11 15 6 8 1017.3 1015.9 0.0
23/09:30pm 24.5 24.0 12.5 47 7.0 ESE 7 9 4 5 1016.8 1015.3 0.0
23/09:00pm 26.1 27.0 12.9 44 7.8 CALM 0 0 0 0 1016.6 1015.1 0.0
23/08:30pm 27.8 28.1 10.9 35 9.7 CALM 0 0 0 0 1016.4 1014.9 0.0
23/08:00pm 30.6 30.4 8.9 26 12.2 CALM 0 0 0 0 1016.1 1014.6 0.0
23/07:30pm 32.5 32.2 8.7 23 13.5 CALM 0 4 0 2 1015.9 1014.4 0.0
23/07:00pm 34.2 33.7 9.4 22 14.3 ENE 2 6 1 3 1015.9 1014.4 0.0
23/06:30pm 34.7 32.6 8.4 20 15.0 ENE 9 13 5 7 1015.8 1014.3 0.0
23/06:00pm 34.9 33.3 8.6 20 15.0 SE 7 13 4 7 1015.7 1014.2 0.0
23/05:30pm 35.4 34.0 9.0 20 15.2 S 6 9 3 5 1015.6 1014.1 0.0
23/05:00pm 35.1 33.5 8.8 20 15.1 ENE 7 15 4 8 1015.7 1014.2 0.0

Other Formats:

Comma delimited format used in spreadsheet applications
http://www.bom.gov.au/fwo/IDN60801/IDN60801.95740.axf

JavaScript Object Notation format (JSON) in row-major order
http://www.bom.gov.au/fwo/IDN60801/IDN60801.95740.json